Time;durP1;ratioP1;P1;durP2;ratioP2;P2;SDS_P1;SDS_P2;PMS_P1;PMS_P2;Temp;Humidity;BMP_temperature;BMP_pressure;BME280_temperature;BME280_humidity;BME280_pressure;Samples;Min_cycle;Max_cycle;Signal;HPM_P1;HPM_P2
2023/08/02 00:12:22;;;;;;;14.30;6.80;;;;;;;20.70;100.00;98902.39;678191;1275;139769;-76
2023/08/02 00:27:26;;;;;;;12.90;7.00;;;;;;;20.51;100.00;98917.64;675559;1263;139544;-76
2023/08/02 00:42:31;;;;;;;14.00;7.40;;;;;;;20.48;100.00;98932.08;678002;1260;139246;-77
2023/08/02 00:57:35;;;;;;;10.10;6.20;;;;;;;20.43;100.00;98944.43;679731;1264;140148;-76
2023/08/02 01:12:44;;;;;;;7.90;4.50;;;;;;;20.23;100.00;98964.55;679834;1261;139876;-77
2023/08/02 01:27:52;;;;;;;5.00;3.70;;;;;;;19.82;100.00;98963.52;679191;1264;140458;-78
2023/08/02 01:42:56;;;;;;;11.00;4.10;;;;;;;19.50;100.00;98965.68;678442;1263;140310;-77
2023/08/02 01:58:00;;;;;;;11.30;6.50;;;;;;;19.36;100.00;98967.95;679859;1260;140241;-76
2023/08/02 02:13:03;;;;;;;9.70;6.10;;;;;;;19.44;100.00;98975.60;680529;1264;140197;-76
2023/08/02 02:28:06;;;;;;;11.40;5.00;;;;;;;19.69;100.00;98989.48;680101;1259;139864;-76
2023/08/02 02:43:09;;;;;;;6.60;4.70;;;;;;;19.85;100.00;98986.06;679555;1262;139553;-76
2023/08/02 02:58:13;;;;;;;9.40;4.50;;;;;;;19.30;100.00;98993.27;680040;1264;141301;-77
2023/08/02 03:13:16;;;;;;;9.60;5.40;;;;;;;19.25;100.00;98992.78;681027;1262;139542;-77
2023/08/02 03:28:19;;;;;;;9.90;5.20;;;;;;;19.25;100.00;99008.39;680718;1264;140328;-76
2023/08/02 03:43:22;;;;;;;8.60;5.90;;;;;;;18.97;100.00;99027.77;680699;1264;140519;-75
2023/08/02 03:58:25;;;;;;;13.50;6.90;;;;;;;19.05;100.00;99019.08;679831;1264;139208;-75
2023/08/02 04:13:28;;;;;;;28.00;12.30;;;;;;;18.73;100.00;99020.88;679865;1259;140157;-76
2023/08/02 04:28:32;;;;;;;9.50;6.00;;;;;;;18.73;100.00;99023.52;681470;1259;140025;-76
2023/08/02 04:43:35;;;;;;;22.20;10.50;;;;;;;19.10;100.00;99017.33;680891;1258;140664;-76
2023/08/02 04:58:38;;;;;;;23.60;7.50;;;;;;;19.12;100.00;99031.59;680901;1264;141258;-76
2023/08/02 05:13:42;;;;;;;25.10;8.30;;;;;;;19.45;100.00;99035.77;680482;1264;139991;-77
2023/08/02 05:28:46;;;;;;;22.20;9.40;;;;;;;19.81;100.00;99035.57;678169;1263;140940;-76
2023/08/02 05:43:53;;;;;;;8.70;5.20;;;;;;;20.34;100.00;99048.96;680269;1263;140180;-78
2023/08/02 05:58:56;;;;;;;7.30;3.80;;;;;;;22.70;95.62;99062.43;680186;1263;139543;-77
2023/08/02 06:14:00;;;;;;;7.60;3.60;;;;;;;23.97;86.40;99067.86;675883;1264;138236;-78
2023/08/02 06:29:06;;;;;;;7.30;3.30;;;;;;;25.79;79.15;99080.45;678637;1259;139738;-78
2023/08/02 06:44:09;;;;;;;5.10;2.70;;;;;;;26.63;72.52;99086.42;681350;1259;138528;-76
2023/08/02 06:59:13;;;;;;;11.50;2.80;;;;;;;26.44;70.52;99094.61;676349;1264;140567;-78
2023/08/02 07:14:17;;;;;;;9.10;3.90;;;;;;;25.97;72.53;99097.03;679526;1259;139528;-78
2023/08/02 07:29:20;;;;;;;5.70;2.10;;;;;;;27.11;69.72;99103.94;677317;1262;139632;-77
2023/08/02 07:44:23;;;;;;;4.60;2.40;;;;;;;26.11;70.28;99101.27;677604;1263;138122;-79
2023/08/02 07:59:27;;;;;;;6.80;3.10;;;;;;;25.20;72.05;99096.64;678758;1262;138469;-78
2023/08/02 08:14:33;;;;;;;3.80;2.80;;;;;;;26.04;71.32;99099.89;674595;1264;139392;-79
2023/08/02 08:29:38;;;;;;;6.60;2.30;;;;;;;26.68;69.10;99104.52;676551;1262;139358;-78
2023/08/02 08:44:42;;;;;;;4.20;2.10;;;;;;;25.90;68.15;99115.73;674222;1267;137679;-79
2023/08/02 09:05:37;;;;;;;7.00;3.30;;;;;;;26.65;66.73;99120.12;651873;1302;545815;-78
2023/08/02 09:20:53;;;;;;;7.00;1.90;;;;;;;27.37;63.59;99115.08;667040;1276;137768;-80
2023/08/02 09:35:57;;;;;;;7.40;2.40;;;;;;;27.36;61.64;99111.27;668398;1274;137327;-77
2023/08/02 09:51:03;;;;;;;4.30;2.00;;;;;;;27.37;61.34;99103.77;674804;1273;138359;-79
2023/08/02 10:06:08;;;;;;;5.10;2.60;;;;;;;28.89;56.88;99096.98;671133;1272;137932;-77
2023/08/02 10:21:15;;;;;;;3.00;1.50;;;;;;;27.98;57.23;99081.69;671121;1275;138408;-77
2023/08/02 10:36:19;;;;;;;4.30;1.90;;;;;;;28.85;56.17;99075.33;669173;1274;137915;-78
2023/08/02 11:01:27;;;;;;;6.30;1.90;;;;;;;28.21;57.49;99079.41;656419;1299;544963;-79
2023/08/02 11:16:39;;;;;;;6.10;1.60;;;;;;;27.97;56.39;99079.69;675862;1280;139954;-78
2023/08/02 11:31:44;;;;;;;4.70;1.60;;;;;;;27.57;55.88;99072.13;677479;1272;138777;-78
2023/08/02 11:46:54;;;;;;;4.70;1.30;;;;;;;29.02;52.27;99066.70;677659;1273;138553;-76
2023/08/02 12:01:57;;;;;;;7.00;1.80;;;;;;;27.59;54.08;99049.70;677202;1270;138616;-75
2023/08/02 12:17:01;;;;;;;4.20;1.80;;;;;;;27.14;55.49;99042.66;674456;1271;138655;-77
2023/08/02 12:32:04;;;;;;;3.10;1.90;;;;;;;26.66;56.95;99046.21;676913;1272;138926;-76
2023/08/02 12:47:07;;;;;;;6.30;1.90;;;;;;;26.38;57.61;99046.01;676153;1272;139647;-76
2023/08/02 13:02:11;;;;;;;8.60;4.80;;;;;;;26.25;57.43;99039.04;669406;1275;137900;-76
2023/08/02 13:17:14;;;;;;;7.20;3.20;;;;;;;26.38;57.56;99027.41;663884;1278;138440;-76
2023/08/02 13:32:17;;;;;;;5.80;1.80;;;;;;;26.55;58.57;99017.43;672666;1265;138726;-76
2023/08/02 13:47:21;;;;;;;4.90;2.00;;;;;;;27.23;57.29;99008.88;670144;1267;138853;-76
2023/08/02 14:02:24;;;;;;;6.10;1.90;;;;;;;27.81;56.12;98996.99;669603;1263;139911;-76
2023/08/02 14:17:28;;;;;;;9.10;1.80;;;;;;;27.57;55.39;99007.23;666436;1267;138450;-77
2023/08/02 14:32:31;;;;;;;6.60;4.00;;;;;;;26.92;55.99;99013.29;666547;1267;138795;-78
2023/08/02 14:47:35;;;;;;;4.10;1.80;;;;;;;27.19;56.66;98986.59;671514;1267;140418;-79
2023/08/02 15:02:39;;;;;;;5.10;1.80;;;;;;;29.10;54.18;98960.98;676408;1263;140931;-77
2023/08/02 15:17:44;;;;;;;4.70;1.80;;;;;;;29.55;52.51;98952.50;679545;1266;141096;-78
2023/08/02 15:32:47;;;;;;;4.90;2.00;;;;;;;28.90;52.79;98944.83;678767;1267;138157;-77
2023/08/02 15:47:50;;;;;;;2.30;1.50;;;;;;;27.06;56.78;98933.54;679969;1263;139979;-77
2023/08/02 16:02:54;;;;;;;3.40;1.60;;;;;;;28.44;54.57;98913.39;679427;1267;139864;-76
2023/08/02 16:17:58;;;;;;;4.50;1.80;;;;;;;27.55;54.86;98902.18;679307;1266;139512;-76
2023/08/02 16:33:02;;;;;;;5.40;2.00;;;;;;;28.11;53.23;98896.81;677570;1267;138053;-76
2023/08/02 16:48:06;;;;;;;8.60;2.10;;;;;;;27.62;54.25;98891.48;676078;1262;139271;-76
2023/08/02 17:03:11;;;;;;;3.20;1.60;;;;;;;27.24;55.55;98863.75;677052;1271;139516;-75
2023/08/02 17:18:14;;;;;;;25.40;10.60;;;;;;;26.47;56.42;98865.37;677582;1265;139548;-76
2023/08/02 17:33:18;;;;;;;31.50;14.30;;;;;;;26.47;57.11;98876.88;679795;1267;138285;-75
2023/08/02 17:48:22;;;;;;;9.60;5.30;;;;;;;25.91;58.61;98886.70;679816;1264;139961;-76
2023/08/02 18:03:25;;;;;;;19.80;9.40;;;;;;;25.38;59.58;98881.96;679504;1267;139197;-76
2023/08/02 18:18:29;;;;;;;41.10;19.60;;;;;;;25.01;61.24;98884.30;680369;1263;139122;-77
2023/08/02 18:33:32;;;;;;;7.10;3.10;;;;;;;24.56;62.64;98882.41;680398;1267;139520;-75
2023/08/02 18:48:37;;;;;;;7.50;2.20;;;;;;;24.19;63.95;98883.18;678222;1265;138822;-75
2023/08/02 19:03:41;;;;;;;10.20;5.00;;;;;;;23.72;65.05;98872.13;680198;1268;140041;-76
2023/08/02 19:18:45;;;;;;;18.10;11.90;;;;;;;23.33;66.41;98850.08;679967;1266;139806;-76
2023/08/02 19:33:48;;;;;;;4.90;3.40;;;;;;;23.95;64.69;98831.79;673112;1268;139247;-76
2023/08/02 19:48:52;;;;;;;5.80;3.50;;;;;;;22.96;67.98;98822.13;673869;1267;138488;-74
2023/08/02 20:03:57;;;;;;;9.50;3.10;;;;;;;22.91;69.00;98795.18;676010;1268;138146;-77
2023/08/02 20:19:01;;;;;;;5.00;3.20;;;;;;;23.13;69.08;98751.05;680336;1262;141276;-76
2023/08/02 20:34:10;;;;;;;6.50;3.50;;;;;;;22.49;70.93;98723.08;679605;1268;139767;-75
2023/08/02 20:49:16;;;;;;;8.40;3.30;;;;;;;22.87;70.61;98738.58;679703;1278;139877;-77
2023/08/02 21:04:21;;;;;;;5.80;2.80;;;;;;;23.12;69.94;98764.12;679954;1269;139953;-75
2023/08/02 21:19:26;;;;;;;5.50;3.00;;;;;;;22.93;71.83;98771.85;680100;1267;140067;-76
2023/08/02 21:34:29;;;;;;;6.80;3.70;;;;;;;22.55;73.51;98791.61;680105;1268;141079;-76
2023/08/02 21:49:33;;;;;;;5.20;2.70;;;;;;;22.61;73.77;98803.42;679340;1268;139899;-76
2023/08/02 22:04:36;;;;;;;4.70;2.50;;;;;;;22.83;72.30;98800.44;679945;1268;139916;-76
2023/08/02 22:19:40;;;;;;;7.80;3.70;;;;;;;22.59;71.82;98796.56;678990;1269;138711;-77
2023/08/02 22:34:43;;;;;;;5.10;2.50;;;;;;;22.80;71.07;98792.45;679655;1268;139831;-76
2023/08/02 22:49:48;;;;;;;5.10;2.20;;;;;;;23.17;69.74;98778.95;680060;1269;138703;-76
2023/08/02 23:04:54;;;;;;;6.50;2.20;;;;;;;23.19;71.07;98765.33;677250;1271;164778;-75
2023/08/02 23:19:57;;;;;;;2.90;2.00;;;;;;;23.33;71.40;98747.94;678095;1267;139125;-75
2023/08/02 23:35:01;;;;;;;8.10;2.60;;;;;;;23.10;72.99;98750.27;679648;1268;139618;-76
2023/08/02 23:50:04;;;;;;;5.40;2.80;;;;;;;22.62;77.72;98703.31;676023;1265;139858;-76
